sensor_id;sensor_type;location;lat;lon;timestamp;temperature;humidity
35027;DHT22;60696;51.426;6.934;2023-05-16T04:01:23;8.80;99.90
35027;DHT22;60696;51.426;6.934;2023-05-16T04:03:49;8.80;99.90
35027;DHT22;60696;51.426;6.934;2023-05-16T04:06:15;8.80;99.90
35027;DHT22;60696;51.426;6.934;2023-05-16T04:08:43;8.80;99.90
35027;DHT22;60696;51.426;6.934;2023-05-16T04:11:09;8.80;99.90
35027;DHT22;60696;51.426;6.934;2023-05-16T04:13:35;8.80;99.90
35027;DHT22;60696;51.426;6.934;2023-05-16T04:16:00;8.80;99.90
35027;DHT22;60696;51.426;6.934;2023-05-16T04:18:26;8.80;99.90
35027;DHT22;60696;51.426;6.934;2023-05-16T04:20:51;8.80;99.90
35027;DHT22;60696;51.426;6.934;2023-05-16T04:23:17;8.70;99.90
35027;DHT22;60696;51.426;6.934;2023-05-16T04:25:42;8.70;99.90
35027;DHT22;60696;51.426;6.934;2023-05-16T04:28:08;8.80;99.90
35027;DHT22;60696;51.426;6.934;2023-05-16T04:30:34;8.80;99.90
35027;DHT22;60696;51.426;6.934;2023-05-16T04:32:59;8.80;99.90
35027;DHT22;60696;51.426;6.934;2023-05-16T04:35:27;8.90;99.90
35027;DHT22;60696;51.426;6.934;2023-05-16T04:37:52;8.80;99.90
35027;DHT22;60696;51.426;6.934;2023-05-16T04:40:18;8.90;99.90
35027;DHT22;60696;51.426;6.934;2023-05-16T04:42:44;8.90;99.90
35027;DHT22;60696;51.426;6.934;2023-05-16T04:45:09;9.10;99.90
35027;DHT22;60696;51.426;6.934;2023-05-16T04:47:36;9.20;99.90
35027;DHT22;60696;51.426;6.934;2023-05-16T04:50:03;9.50;99.90
35027;DHT22;60696;51.426;6.934;2023-05-16T04:52:28;9.80;99.90
35027;DHT22;60696;51.426;6.934;2023-05-16T04:54:54;9.90;99.90
35027;DHT22;60696;51.426;6.934;2023-05-16T04:57:20;10.20;99.90
35027;DHT22;60696;51.426;6.934;2023-05-16T04:59:45;10.50;99.90
35027;DHT22;60696;51.426;6.934;2023-05-16T05:02:11;10.90;99.90
35027;DHT22;60696;51.426;6.934;2023-05-16T05:04:36;11.50;99.90
35027;DHT22;60696;51.426;6.934;2023-05-16T05:07:02;11.30;99.90
35027;DHT22;60696;51.426;6.934;2023-05-16T05:09:28;11.00;99.90
35027;DHT22;60696;51.426;6.934;2023-05-16T05:11:53;11.00;99.90
35027;DHT22;60696;51.426;6.934;2023-05-16T05:14:19;10.70;99.90
35027;DHT22;60696;51.426;6.934;2023-05-16T05:16:44;10.90;99.90
35027;DHT22;60696;51.426;6.934;2023-05-16T05:19:10;11.00;99.90
35027;DHT22;60696;51.426;6.934;2023-05-16T05:21:35;11.20;99.90
35027;DHT22;60696;51.426;6.934;2023-05-16T05:24:02;11.60;99.90
35027;DHT22;60696;51.426;6.934;2023-05-16T05:26:28;11.50;99.90
35027;DHT22;60696;51.426;6.934;2023-05-16T05:28:54;11.20;99.90
35027;DHT22;60696;51.426;6.934;2023-05-16T05:31:20;11.20;99.90
35027;DHT22;60696;51.426;6.934;2023-05-16T05:33:45;11.30;99.90
35027;DHT22;60696;51.426;6.934;2023-05-16T05:36:11;11.50;99.90
35027;DHT22;60696;51.426;6.934;2023-05-16T05:38:36;11.50;99.90
35027;DHT22;60696;51.426;6.934;2023-05-16T05:41:03;12.40;99.90
35027;DHT22;60696;51.426;6.934;2023-05-16T05:43:28;12.70;99.90
35027;DHT22;60696;51.426;6.934;2023-05-16T05:45:54;12.90;99.90
35027;DHT22;60696;51.426;6.934;2023-05-16T05:48:20;13.60;99.90
35027;DHT22;60696;51.426;6.934;2023-05-16T05:50:46;13.40;99.90
35027;DHT22;60696;51.426;6.934;2023-05-16T05:53:11;13.90;99.90
35027;DHT22;60696;51.426;6.934;2023-05-16T05:55:37;13.80;99.90
35027;DHT22;60696;51.426;6.934;2023-05-16T05:58:02;13.10;99.90
35027;DHT22;60696;51.426;6.934;2023-05-16T06:00:28;13.50;99.90
35027;DHT22;60696;51.426;6.934;2023-05-16T06:02:54;13.80;99.90
35027;DHT22;60696;51.426;6.934;2023-05-16T06:05:20;13.70;99.90
35027;DHT22;60696;51.426;6.934;2023-05-16T06:07:45;14.30;99.90
35027;DHT22;60696;51.426;6.934;2023-05-16T06:10:11;14.30;99.90
35027;DHT22;60696;51.426;6.934;2023-05-16T06:12:36;14.20;99.90
35027;DHT22;60696;51.426;6.934;2023-05-16T06:15:02;14.30;99.90
35027;DHT22;60696;51.426;6.934;2023-05-16T06:17:28;14.50;99.90
35027;DHT22;60696;51.426;6.934;2023-05-16T06:19:53;13.90;99.90
35027;DHT22;60696;51.426;6.934;2023-05-16T06:22:19;14.00;99.90
35027;DHT22;60696;51.426;6.934;2023-05-16T06:24:44;14.40;99.90
35027;DHT22;60696;51.426;6.934;2023-05-16T06:27:10;14.00;99.90
35027;DHT22;60696;51.426;6.934;2023-05-16T06:29:36;13.80;99.90
35027;DHT22;60696;51.426;6.934;2023-05-16T06:32:01;14.60;99.90
35027;DHT22;60696;51.426;6.934;2023-05-16T06:34:27;15.30;99.90
35027;DHT22;60696;51.426;6.934;2023-05-16T06:36:53;15.40;99.20
35027;DHT22;60696;51.426;6.934;2023-05-16T06:39:19;15.40;99.90
35027;DHT22;60696;51.426;6.934;2023-05-16T06:41:45;16.40;97.40
35027;DHT22;60696;51.426;6.934;2023-05-16T06:44:10;16.40;95.20
35027;DHT22;60696;51.426;6.934;2023-05-16T06:46:36;16.20;98.00
35027;DHT22;60696;51.426;6.934;2023-05-16T06:49:02;17.10;92.20
35027;DHT22;60696;51.426;6.934;2023-05-16T06:51:28;16.10;93.90
35027;DHT22;60696;51.426;6.934;2023-05-16T06:53:53;15.50;97.30
35027;DHT22;60696;51.426;6.934;2023-05-16T06:56:19;15.80;95.20
35027;DHT22;60696;51.426;6.934;2023-05-16T06:58:45;15.40;96.30
35027;DHT22;60696;51.426;6.934;2023-05-16T07:01:11;16.10;92.80
35027;DHT22;60696;51.426;6.934;2023-05-16T07:03:37;15.80;93.30
35027;DHT22;60696;51.426;6.934;2023-05-16T07:06:03;16.60;93.30
35027;DHT22;60696;51.426;6.934;2023-05-16T07:08:28;17.00;91.10
35027;DHT22;60696;51.426;6.934;2023-05-16T07:10:54;17.40;90.30
35027;DHT22;60696;51.426;6.934;2023-05-16T07:13:19;17.40;91.70
35027;DHT22;60696;51.426;6.934;2023-05-16T07:15:45;18.60;91.00
35027;DHT22;60696;51.426;6.934;2023-05-16T07:18:11;19.70;71.30
35027;DHT22;60696;51.426;6.934;2023-05-16T07:20:36;17.40;85.90
35027;DHT22;60696;51.426;6.934;2023-05-16T07:23:02;16.90;87.00
35027;DHT22;60696;51.426;6.934;2023-05-16T07:25:27;15.10;93.00
35027;DHT22;60696;51.426;6.934;2023-05-16T07:27:53;15.10;95.80
35027;DHT22;60696;51.426;6.934;2023-05-16T07:30:19;14.80;96.20
35027;DHT22;60696;51.426;6.934;2023-05-16T07:32:45;16.00;92.80
35027;DHT22;60696;51.426;6.934;2023-05-16T07:35:11;17.30;83.80
35027;DHT22;60696;51.426;6.934;2023-05-16T07:37:37;17.00;83.10
35027;DHT22;60696;51.426;6.934;2023-05-16T07:40:06;18.00;78.80
35027;DHT22;60696;51.426;6.934;2023-05-16T07:42:32;17.60;78.30
35027;DHT22;60696;51.426;6.934;2023-05-16T07:44:58;17.50;69.90
35027;DHT22;60696;51.426;6.934;2023-05-16T07:47:23;16.80;72.90
35027;DHT22;60696;51.426;6.934;2023-05-16T07:49:49;15.80;77.50
35027;DHT22;60696;51.426;6.934;2023-05-16T07:52:15;15.30;85.70
35027;DHT22;60696;51.426;6.934;2023-05-16T07:54:40;15.20;85.60
35027;DHT22;60696;51.426;6.934;2023-05-16T07:57:06;15.90;83.40
35027;DHT22;60696;51.426;6.934;2023-05-16T07:59:32;16.60;75.90
35027;DHT22;60696;51.426;6.934;2023-05-16T08:01:57;17.80;74.70
35027;DHT22;60696;51.426;6.934;2023-05-16T08:04:23;19.30;67.40
35027;DHT22;60696;51.426;6.934;2023-05-16T08:06:48;20.40;56.40
35027;DHT22;60696;51.426;6.934;2023-05-16T08:09:14;20.00;54.00
35027;DHT22;60696;51.426;6.934;2023-05-16T08:11:40;19.80;55.10
35027;DHT22;60696;51.426;6.934;2023-05-16T08:14:05;20.00;53.60
35027;DHT22;60696;51.426;6.934;2023-05-16T08:16:31;21.20;56.10
35027;DHT22;60696;51.426;6.934;2023-05-16T08:18:57;21.40;46.70
35027;DHT22;60696;51.426;6.934;2023-05-16T08:21:22;21.10;49.90
35027;DHT22;60696;51.426;6.934;2023-05-16T08:23:48;19.70;47.80
35027;DHT22;60696;51.426;6.934;2023-05-16T08:26:14;17.70;54.80
35027;DHT22;60696;51.426;6.934;2023-05-16T08:28:40;17.70;58.00
35027;DHT22;60696;51.426;6.934;2023-05-16T08:31:06;17.40;61.60
35027;DHT22;60696;51.426;6.934;2023-05-16T08:33:31;17.80;60.80
35027;DHT22;60696;51.426;6.934;2023-05-16T08:35:57;16.60;61.80
35027;DHT22;60696;51.426;6.934;2023-05-16T08:38:23;15.90;61.40
35027;DHT22;60696;51.426;6.934;2023-05-16T08:40:49;15.40;65.00
35027;DHT22;60696;51.426;6.934;2023-05-16T08:43:14;14.90;66.00
35027;DHT22;60696;51.426;6.934;2023-05-16T08:45:40;14.30;70.70
35027;DHT22;60696;51.426;6.934;2023-05-16T08:48:08;14.00;78.10
35027;DHT22;60696;51.426;6.934;2023-05-16T08:50:34;15.20;79.50
35027;DHT22;60696;51.426;6.934;2023-05-16T08:53:04;16.90;68.70
35027;DHT22;60696;51.426;6.934;2023-05-16T08:55:31;18.70;58.70
35027;DHT22;60696;51.426;6.934;2023-05-16T08:57:58;19.70;52.70
35027;DHT22;60696;51.426;6.934;2023-05-16T09:00:26;19.20;54.10
35027;DHT22;60696;51.426;6.934;2023-05-16T09:02:52;17.60;53.20
35027;DHT22;60696;51.426;6.934;2023-05-16T09:05:18;16.90;60.40
35027;DHT22;60696;51.426;6.934;2023-05-16T09:07:44;16.90;59.40
35027;DHT22;60696;51.426;6.934;2023-05-16T09:10:11;16.40;59.60
35027;DHT22;60696;51.426;6.934;2023-05-16T09:12:38;16.60;62.10
35027;DHT22;60696;51.426;6.934;2023-05-16T09:15:05;16.30;59.80
35027;DHT22;60696;51.426;6.934;2023-05-16T09:17:39;15.90;62.60
35027;DHT22;60696;51.426;6.934;2023-05-16T09:20:12;16.40;65.20
35027;DHT22;60696;51.426;6.934;2023-05-16T09:22:39;16.80;66.10
35027;DHT22;60696;51.426;6.934;2023-05-16T09:25:06;17.60;63.70
35027;DHT22;60696;51.426;6.934;2023-05-16T09:27:32;17.80;60.30
35027;DHT22;60696;51.426;6.934;2023-05-16T09:29:58;17.10;57.40
35027;DHT22;60696;51.426;6.934;2023-05-16T09:32:24;16.70;56.20
35027;DHT22;60696;51.426;6.934;2023-05-16T09:34:52;16.10;61.00
35027;DHT22;60696;51.426;6.934;2023-05-16T09:37:18;15.70;59.60
35027;DHT22;60696;51.426;6.934;2023-05-16T09:39:49;15.70;61.30
35027;DHT22;60696;51.426;6.934;2023-05-16T09:42:16;15.30;63.00
35027;DHT22;60696;51.426;6.934;2023-05-16T09:44:47;15.10;65.10
35027;DHT22;60696;51.426;6.934;2023-05-16T09:47:17;15.40;67.70
35027;DHT22;60696;51.426;6.934;2023-05-16T09:49:43;15.70;71.10
35027;DHT22;60696;51.426;6.934;2023-05-16T09:52:09;15.90;66.10
35027;DHT22;60696;51.426;6.934;2023-05-16T09:54:35;15.90;61.30
35027;DHT22;60696;51.426;6.934;2023-05-16T09:57:01;15.80;61.90
35027;DHT22;60696;51.426;6.934;2023-05-16T09:59:33;15.60;62.80
35027;DHT22;60696;51.426;6.934;2023-05-16T10:01:59;15.00;64.00
35027;DHT22;60696;51.426;6.934;2023-05-16T10:04:25;14.60;69.80
35027;DHT22;60696;51.426;6.934;2023-05-16T10:06:54;14.70;73.30
35027;DHT22;60696;51.426;6.934;2023-05-16T10:09:23;14.40;72.50
35027;DHT22;60696;51.426;6.934;2023-05-16T10:11:50;14.20;72.80
35027;DHT22;60696;51.426;6.934;2023-05-16T10:14:17;14.50;75.10
35027;DHT22;60696;51.426;6.934;2023-05-16T10:16:46;14.70;78.20
35027;DHT22;60696;51.426;6.934;2023-05-16T10:19:13;15.20;73.10
35027;DHT22;60696;51.426;6.934;2023-05-16T10:21:39;15.60;73.00
35027;DHT22;60696;51.426;6.934;2023-05-16T10:24:10;15.80;70.10
35027;DHT22;60696;51.426;6.934;2023-05-16T10:26:38;15.70;72.20
35027;DHT22;60696;51.426;6.934;2023-05-16T10:29:03;15.30;70.00
35027;DHT22;60696;51.426;6.934;2023-05-16T10:31:30;15.10;72.30
35027;DHT22;60696;51.426;6.934;2023-05-16T10:33:59;14.80;74.60
35027;DHT22;60696;51.426;6.934;2023-05-16T10:36:25;14.70;80.80
35027;DHT22;60696;51.426;6.934;2023-05-16T10:38:51;14.80;83.00
35027;DHT22;60696;51.426;6.934;2023-05-16T10:41:18;15.10;88.20
35027;DHT22;60696;51.426;6.934;2023-05-16T10:43:44;15.40;81.40
35027;DHT22;60696;51.426;6.934;2023-05-16T10:46:22;15.50;81.20
35027;DHT22;60696;51.426;6.934;2023-05-16T10:48:48;15.40;79.20
35027;DHT22;60696;51.426;6.934;2023-05-16T10:53:52;14.90;80.80
35027;DHT22;60696;51.426;6.934;2023-05-16T10:56:22;14.80;82.40
35027;DHT22;60696;51.426;6.934;2023-05-16T10:58:48;14.90;84.90
35027;DHT22;60696;51.426;6.934;2023-05-16T11:04:08;14.80;89.60
35027;DHT22;60696;51.426;6.934;2023-05-16T11:09:12;15.30;87.70
35027;DHT22;60696;51.426;6.934;2023-05-16T11:17:06;16.30;81.60
35027;DHT22;60696;51.426;6.934;2023-05-16T11:19:47;16.30;79.90
35027;DHT22;60696;51.426;6.934;2023-05-16T11:24:58;16.70;91.90
35027;DHT22;60696;51.426;6.934;2023-05-16T11:27:31;17.30;81.80
35027;DHT22;60696;51.426;6.934;2023-05-16T11:32:39;16.60;66.90
35027;DHT22;60696;51.426;6.934;2023-05-16T11:35:07;16.20;74.70
35027;DHT22;60696;51.426;6.934;2023-05-16T11:37:33;15.80;69.50
35027;DHT22;60696;51.426;6.934;2023-05-16T11:40:01;15.70;74.50
35027;DHT22;60696;51.426;6.934;2023-05-16T11:42:34;15.20;77.70
35027;DHT22;60696;51.426;6.934;2023-05-16T11:45:08;14.30;82.70
35027;DHT22;60696;51.426;6.934;2023-05-16T11:47:39;14.10;90.80
35027;DHT22;60696;51.426;6.934;2023-05-16T11:50:12;13.80;94.20
35027;DHT22;60696;51.426;6.934;2023-05-16T11:52:39;13.50;99.90
35027;DHT22;60696;51.426;6.934;2023-05-16T11:55:06;13.50;99.90
35027;DHT22;60696;51.426;6.934;2023-05-16T11:57:32;13.60;99.60
35027;DHT22;60696;51.426;6.934;2023-05-16T12:00:03;13.80;96.50
35027;DHT22;60696;51.426;6.934;2023-05-16T12:02:30;14.30;98.50
35027;DHT22;60696;51.426;6.934;2023-05-16T12:04:56;14.80;99.90
35027;DHT22;60696;51.426;6.934;2023-05-16T12:07:27;15.10;93.80
35027;DHT22;60696;51.426;6.934;2023-05-16T12:09:52;15.60;91.60
35027;DHT22;60696;51.426;6.934;2023-05-16T12:12:20;15.70;87.00
35027;DHT22;60696;51.426;6.934;2023-05-16T12:14:46;15.90;85.60
35027;DHT22;60696;51.426;6.934;2023-05-16T12:17:12;15.80;81.40
35027;DHT22;60696;51.426;6.934;2023-05-16T12:19:38;15.80;79.50
35027;DHT22;60696;51.426;6.934;2023-05-16T12:22:04;16.00;77.20
35027;DHT22;60696;51.426;6.934;2023-05-16T12:24:30;16.10;72.20
35027;DHT22;60696;51.426;6.934;2023-05-16T12:26:56;16.20;82.90
35027;DHT22;60696;51.426;6.934;2023-05-16T12:29:24;16.20;79.00
35027;DHT22;60696;51.426;6.934;2023-05-16T12:31:52;16.30;77.40
35027;DHT22;60696;51.426;6.934;2023-05-16T12:34:21;16.70;93.40
35027;DHT22;60696;51.426;6.934;2023-05-16T12:36:51;16.90;86.20
35027;DHT22;60696;51.426;6.934;2023-05-16T12:39:17;17.00;79.00
35027;DHT22;60696;51.426;6.934;2023-05-16T12:41:44;16.80;75.40
35027;DHT22;60696;51.426;6.934;2023-05-16T12:44:17;16.60;69.10
35027;DHT22;60696;51.426;6.934;2023-05-16T12:46:49;16.70;75.20
35027;DHT22;60696;51.426;6.934;2023-05-16T12:49:22;17.00;85.60
35027;DHT22;60696;51.426;6.934;2023-05-16T12:51:52;17.40;64.20
35027;DHT22;60696;51.426;6.934;2023-05-16T12:54:18;17.30;66.60
35027;DHT22;60696;51.426;6.934;2023-05-16T12:56:44;17.10;68.70
35027;DHT22;60696;51.426;6.934;2023-05-16T12:59:10;16.90;71.70
35027;DHT22;60696;51.426;6.934;2023-05-16T13:01:39;16.50;63.70
35027;DHT22;60696;51.426;6.934;2023-05-16T13:04:05;16.20;67.90
35027;DHT22;60696;51.426;6.934;2023-05-16T13:06:31;16.50;71.90
35027;DHT22;60696;51.426;6.934;2023-05-16T13:08:57;16.50;61.50
35027;DHT22;60696;51.426;6.934;2023-05-16T13:11:23;16.30;57.20
35027;DHT22;60696;51.426;6.934;2023-05-16T13:13:50;16.20;59.10
35027;DHT22;60696;51.426;6.934;2023-05-16T13:16:16;16.30;62.10
35027;DHT22;60696;51.426;6.934;2023-05-16T13:18:42;16.00;59.50
35027;DHT22;60696;51.426;6.934;2023-05-16T13:21:07;15.90;59.40
35027;DHT22;60696;51.426;6.934;2023-05-16T13:23:33;15.90;58.70
35027;DHT22;60696;51.426;6.934;2023-05-16T13:25:59;15.80;58.30
35027;DHT22;60696;51.426;6.934;2023-05-16T13:28:24;15.70;60.00
35027;DHT22;60696;51.426;6.934;2023-05-16T13:30:50;15.70;58.20
35027;DHT22;60696;51.426;6.934;2023-05-16T13:33:16;15.60;58.10
35027;DHT22;60696;51.426;6.934;2023-05-16T13:35:43;15.60;58.70
35027;DHT22;60696;51.426;6.934;2023-05-16T13:38:09;15.70;58.20
35027;DHT22;60696;51.426;6.934;2023-05-16T13:40:34;15.80;58.60
35027;DHT22;60696;51.426;6.934;2023-05-16T13:43:01;15.60;59.60
35027;DHT22;60696;51.426;6.934;2023-05-16T13:45:27;15.70;60.30
35027;DHT22;60696;51.426;6.934;2023-05-16T13:47:52;15.80;61.50
35027;DHT22;60696;51.426;6.934;2023-05-16T13:50:18;16.00;61.60
35027;DHT22;60696;51.426;6.934;2023-05-16T13:52:45;16.00;58.20
35027;DHT22;60696;51.426;6.934;2023-05-16T13:55:12;15.70;61.10
35027;DHT22;60696;51.426;6.934;2023-05-16T13:57:37;15.40;61.70
35027;DHT22;60696;51.426;6.934;2023-05-16T14:00:03;15.60;67.30
35027;DHT22;60696;51.426;6.934;2023-05-16T14:02:39;16.00;64.80
35027;DHT22;60696;51.426;6.934;2023-05-16T14:05:35;15.90;61.10
35027;DHT22;60696;51.426;6.934;2023-05-16T14:08:01;16.00;63.10
35027;DHT22;60696;51.426;6.934;2023-05-16T14:10:26;15.70;60.70
35027;DHT22;60696;51.426;6.934;2023-05-16T14:12:52;15.60;58.80
35027;DHT22;60696;51.426;6.934;2023-05-16T14:15:18;15.30;56.90
35027;DHT22;60696;51.426;6.934;2023-05-16T14:17:43;15.40;60.70
35027;DHT22;60696;51.426;6.934;2023-05-16T14:20:09;15.40;61.50
35027;DHT22;60696;51.426;6.934;2023-05-16T14:22:36;15.40;60.40
35027;DHT22;60696;51.426;6.934;2023-05-16T14:25:02;15.50;61.80
35027;DHT22;60696;51.426;6.934;2023-05-16T14:27:27;15.50;61.80
35027;DHT22;60696;51.426;6.934;2023-05-16T14:29:53;15.40;61.20
35027;DHT22;60696;51.426;6.934;2023-05-16T14:32:18;15.60;62.70
35027;DHT22;60696;51.426;6.934;2023-05-16T14:34:45;15.50;62.50
35027;DHT22;60696;51.426;6.934;2023-05-16T14:37:10;15.40;65.30
35027;DHT22;60696;51.426;6.934;2023-05-16T14:39:37;15.60;64.10
35027;DHT22;60696;51.426;6.934;2023-05-16T14:42:03;15.80;64.50
35027;DHT22;60696;51.426;6.934;2023-05-16T14:44:28;15.70;61.90
35027;DHT22;60696;51.426;6.934;2023-05-16T14:46:54;15.50;60.40
35027;DHT22;60696;51.426;6.934;2023-05-16T14:49:20;15.40;62.60
35027;DHT22;60696;51.426;6.934;2023-05-16T14:51:46;15.30;63.50
35027;DHT22;60696;51.426;6.934;2023-05-16T14:54:14;15.20;65.70
35027;DHT22;60696;51.426;6.934;2023-05-16T14:56:41;14.80;63.30
35027;DHT22;60696;51.426;6.934;2023-05-16T14:59:06;14.50;64.50
35027;DHT22;60696;51.426;6.934;2023-05-16T15:01:32;14.40;67.80
35027;DHT22;60696;51.426;6.934;2023-05-16T15:03:58;14.60;65.70
35027;DHT22;60696;51.426;6.934;2023-05-16T15:06:24;14.60;66.30
35027;DHT22;60696;51.426;6.934;2023-05-16T15:08:49;14.50;67.70
35027;DHT22;60696;51.426;6.934;2023-05-16T15:11:15;14.50;68.20
35027;DHT22;60696;51.426;6.934;2023-05-16T15:13:41;14.50;71.50
35027;DHT22;60696;51.426;6.934;2023-05-16T15:16:06;14.60;69.60
35027;DHT22;60696;51.426;6.934;2023-05-16T15:18:32;14.70;68.90
35027;DHT22;60696;51.426;6.934;2023-05-16T15:20:58;14.70;71.00
35027;DHT22;60696;51.426;6.934;2023-05-16T15:23:24;14.60;69.90
35027;DHT22;60696;51.426;6.934;2023-05-16T15:25:50;14.60;70.00
35027;DHT22;60696;51.426;6.934;2023-05-16T15:28:16;14.60;71.60
35027;DHT22;60696;51.426;6.934;2023-05-16T15:30:43;14.40;73.10
35027;DHT22;60696;51.426;6.934;2023-05-16T15:33:09;14.40;72.10
35027;DHT22;60696;51.426;6.934;2023-05-16T15:35:35;14.30;72.40
35027;DHT22;60696;51.426;6.934;2023-05-16T15:38:00;14.20;74.20
35027;DHT22;60696;51.426;6.934;2023-05-16T15:40:26;14.30;75.30
35027;DHT22;60696;51.426;6.934;2023-05-16T15:42:52;14.20;77.30
35027;DHT22;60696;51.426;6.934;2023-05-16T15:45:18;14.10;76.90
35027;DHT22;60696;51.426;6.934;2023-05-16T15:47:43;14.10;78.90
35027;DHT22;60696;51.426;6.934;2023-05-16T15:50:09;14.20;76.60
35027;DHT22;60696;51.426;6.934;2023-05-16T15:52:35;14.30;77.10
35027;DHT22;60696;51.426;6.934;2023-05-16T15:55:04;14.30;78.70
35027;DHT22;60696;51.426;6.934;2023-05-16T15:57:30;14.40;78.30
35027;DHT22;60696;51.426;6.934;2023-05-16T15:59:56;14.50;80.50
35027;DHT22;60696;51.426;6.934;2023-05-16T16:02:21;14.40;78.80
35027;DHT22;60696;51.426;6.934;2023-05-16T16:04:47;14.40;80.20
35027;DHT22;60696;51.426;6.934;2023-05-16T16:07:16;14.30;80.10
35027;DHT22;60696;51.426;6.934;2023-05-16T16:09:42;14.20;84.90
35027;DHT22;60696;51.426;6.934;2023-05-16T16:12:07;14.40;89.50
35027;DHT22;60696;51.426;6.934;2023-05-16T16:14:33;14.50;89.90
35027;DHT22;60696;51.426;6.934;2023-05-16T16:16:59;14.40;90.00
35027;DHT22;60696;51.426;6.934;2023-05-16T16:19:25;14.40;90.60
35027;DHT22;60696;51.426;6.934;2023-05-16T16:21:51;14.20;89.70
35027;DHT22;60696;51.426;6.934;2023-05-16T16:24:16;14.20;88.70
35027;DHT22;60696;51.426;6.934;2023-05-16T16:26:42;14.30;90.60
35027;DHT22;60696;51.426;6.934;2023-05-16T16:29:08;14.20;89.50
35027;DHT22;60696;51.426;6.934;2023-05-16T16:31:33;14.10;90.80
35027;DHT22;60696;51.426;6.934;2023-05-16T16:33:59;14.00;92.30
35027;DHT22;60696;51.426;6.934;2023-05-16T16:36:25;14.10;92.60
35027;DHT22;60696;51.426;6.934;2023-05-16T16:38:51;13.90;92.50
35027;DHT22;60696;51.426;6.934;2023-05-16T16:41:16;14.10;90.50
35027;DHT22;60696;51.426;6.934;2023-05-16T16:43:42;14.00;91.20
35027;DHT22;60696;51.426;6.934;2023-05-16T16:46:08;13.90;91.80
35027;DHT22;60696;51.426;6.934;2023-05-16T16:48:34;13.90;90.50
35027;DHT22;60696;51.426;6.934;2023-05-16T16:51:00;13.80;89.70
35027;DHT22;60696;51.426;6.934;2023-05-16T16:53:26;13.70;91.10
35027;DHT22;60696;51.426;6.934;2023-05-16T16:55:52;13.60;91.60
35027;DHT22;60696;51.426;6.934;2023-05-16T16:58:18;13.60;96.60
35027;DHT22;60696;51.426;6.934;2023-05-16T17:00:43;13.50;95.30
35027;DHT22;60696;51.426;6.934;2023-05-16T17:03:10;13.60;96.00
35027;DHT22;60696;51.426;6.934;2023-05-16T17:05:35;13.70;95.50
35027;DHT22;60696;51.426;6.934;2023-05-16T17:08:01;13.60;95.60
35027;DHT22;60696;51.426;6.934;2023-05-16T17:10:27;13.70;96.00
35027;DHT22;60696;51.426;6.934;2023-05-16T17:12:53;13.70;97.00
35027;DHT22;60696;51.426;6.934;2023-05-16T17:15:19;13.50;96.60
35027;DHT22;60696;51.426;6.934;2023-05-16T17:17:45;13.50;96.50
35027;DHT22;60696;51.426;6.934;2023-05-16T17:20:12;13.50;96.70
35027;DHT22;60696;51.426;6.934;2023-05-16T17:22:38;13.30;96.70
35027;DHT22;60696;51.426;6.934;2023-05-16T17:25:05;13.40;97.10
35027;DHT22;60696;51.426;6.934;2023-05-16T17:27:31;13.50;97.60
35027;DHT22;60696;51.426;6.934;2023-05-16T17:29:57;13.50;97.40
35027;DHT22;60696;51.426;6.934;2023-05-16T17:32:22;13.40;98.30
35027;DHT22;60696;51.426;6.934;2023-05-16T17:34:48;13.40;97.70
35027;DHT22;60696;51.426;6.934;2023-05-16T17:37:14;13.50;97.80
35027;DHT22;60696;51.426;6.934;2023-05-16T17:39:40;13.50;98.20
35027;DHT22;60696;51.426;6.934;2023-05-16T17:42:06;13.50;97.90
35027;DHT22;60696;51.426;6.934;2023-05-16T17:44:34;13.30;98.30
35027;DHT22;60696;51.426;6.934;2023-05-16T17:47:00;13.30;99.40
35027;DHT22;60696;51.426;6.934;2023-05-16T17:49:25;13.20;99.00
35027;DHT22;60696;51.426;6.934;2023-05-16T17:51:55;13.10;98.60
35027;DHT22;60696;51.426;6.934;2023-05-16T17:54:21;12.90;99.40
35027;DHT22;60696;51.426;6.934;2023-05-16T17:56:49;13.00;99.20
35027;DHT22;60696;51.426;6.934;2023-05-16T17:59:15;13.00;99.90
35027;DHT22;60696;51.426;6.934;2023-05-16T18:01:41;12.90;99.90
35027;DHT22;60696;51.426;6.934;2023-05-16T18:04:08;12.90;99.90
35027;DHT22;60696;51.426;6.934;2023-05-16T18:06:35;13.00;99.90
35027;DHT22;60696;51.426;6.934;2023-05-16T18:09:02;12.90;99.90
35027;DHT22;60696;51.426;6.934;2023-05-16T18:11:33;12.90;99.90
35027;DHT22;60696;51.426;6.934;2023-05-16T18:13:59;12.80;99.90
35027;DHT22;60696;51.426;6.934;2023-05-16T18:16:26;12.80;99.90
35027;DHT22;60696;51.426;6.934;2023-05-16T18:18:52;12.70;99.90
35027;DHT22;60696;51.426;6.934;2023-05-16T18:21:27;12.70;99.90
35027;DHT22;60696;51.426;6.934;2023-05-16T18:23:53;12.80;99.90
35027;DHT22;60696;51.426;6.934;2023-05-16T18:26:19;12.70;99.90
35027;DHT22;60696;51.426;6.934;2023-05-16T18:28:45;12.80;99.90
35027;DHT22;60696;51.426;6.934;2023-05-16T18:31:10;12.70;99.90
35027;DHT22;60696;51.426;6.934;2023-05-16T18:33:36;12.60;99.90
35027;DHT22;60696;51.426;6.934;2023-05-16T18:36:02;12.60;99.90
35027;DHT22;60696;51.426;6.934;2023-05-16T18:38:28;12.60;99.90
35027;DHT22;60696;51.426;6.934;2023-05-16T18:40:54;12.60;99.90
35027;DHT22;60696;51.426;6.934;2023-05-16T18:43:20;12.60;99.90
35027;DHT22;60696;51.426;6.934;2023-05-16T18:45:45;12.50;99.90
35027;DHT22;60696;51.426;6.934;2023-05-16T18:48:11;12.60;99.90
35027;DHT22;60696;51.426;6.934;2023-05-16T18:50:37;12.50;99.90
35027;DHT22;60696;51.426;6.934;2023-05-16T18:53:03;12.50;99.90
35027;DHT22;60696;51.426;6.934;2023-05-16T18:55:28;12.50;99.90
35027;DHT22;60696;51.426;6.934;2023-05-16T18:57:54;12.40;99.90
35027;DHT22;60696;51.426;6.934;2023-05-16T19:00:22;12.40;99.90
35027;DHT22;60696;51.426;6.934;2023-05-16T19:02:48;12.30;99.90
35027;DHT22;60696;51.426;6.934;2023-05-16T19:05:14;12.30;99.90
35027;DHT22;60696;51.426;6.934;2023-05-16T19:07:40;12.30;99.90
35027;DHT22;60696;51.426;6.934;2023-05-16T19:10:07;12.30;99.90
35027;DHT22;60696;51.426;6.934;2023-05-16T19:12:35;12.20;99.90
35027;DHT22;60696;51.426;6.934;2023-05-16T19:15:01;12.10;99.90
35027;DHT22;60696;51.426;6.934;2023-05-16T19:17:27;12.10;99.90
35027;DHT22;60696;51.426;6.934;2023-05-16T19:19:55;12.10;99.90
35027;DHT22;60696;51.426;6.934;2023-05-16T19:22:20;12.10;99.90
35027;DHT22;60696;51.426;6.934;2023-05-16T19:24:46;12.20;99.90
35027;DHT22;60696;51.426;6.934;2023-05-16T19:27:12;12.20;99.90
35027;DHT22;60696;51.426;6.934;2023-05-16T19:29:37;12.20;99.90
35027;DHT22;60696;51.426;6.934;2023-05-16T19:32:03;12.30;99.90
35027;DHT22;60696;51.426;6.934;2023-05-16T19:34:29;12.30;99.90
35027;DHT22;60696;51.426;6.934;2023-05-16T19:36:55;12.30;99.90
35027;DHT22;60696;51.426;6.934;2023-05-16T19:39:21;12.30;99.90
35027;DHT22;60696;51.426;6.934;2023-05-16T19:41:46;12.30;99.90
35027;DHT22;60696;51.426;6.934;2023-05-16T19:44:15;12.30;99.90
35027;DHT22;60696;51.426;6.934;2023-05-16T19:46:41;12.30;99.90